sensor_id;sensor_type;location;lat;lon;timestamp;temperature;humidity
39675;DHT22;27790;50.840;4.386;2023-07-31T00:00:06;19.20;99.90
39675;DHT22;27790;50.840;4.386;2023-07-31T00:02:31;19.20;99.90
39675;DHT22;27790;50.840;4.386;2023-07-31T00:04:57;19.20;99.90
39675;DHT22;27790;50.840;4.386;2023-07-31T00:07:23;19.10;99.90
39675;DHT22;27790;50.840;4.386;2023-07-31T00:09:49;19.10;99.90
39675;DHT22;27790;50.840;4.386;2023-07-31T00:12:14;19.20;99.90
39675;DHT22;27790;50.840;4.386;2023-07-31T00:14:40;19.20;99.90
39675;DHT22;27790;50.840;4.386;2023-07-31T00:17:05;19.20;99.90
39675;DHT22;27790;50.840;4.386;2023-07-31T00:19:31;19.30;99.90
39675;DHT22;27790;50.840;4.386;2023-07-31T00:21:57;19.30;99.90
39675;DHT22;27790;50.840;4.386;2023-07-31T00:24:22;19.20;99.90
39675;DHT22;27790;50.840;4.386;2023-07-31T00:26:48;19.30;99.90
39675;DHT22;27790;50.840;4.386;2023-07-31T00:29:13;19.30;99.90
39675;DHT22;27790;50.840;4.386;2023-07-31T00:31:39;19.30;99.90
39675;DHT22;27790;50.840;4.386;2023-07-31T00:34:04;19.30;99.90
39675;DHT22;27790;50.840;4.386;2023-07-31T00:36:30;19.30;99.90
39675;DHT22;27790;50.840;4.386;2023-07-31T00:38:56;19.30;99.90
39675;DHT22;27790;50.840;4.386;2023-07-31T00:41:21;19.30;99.90
39675;DHT22;27790;50.840;4.386;2023-07-31T00:43:47;19.30;99.90
39675;DHT22;27790;50.840;4.386;2023-07-31T00:46:12;19.20;99.90
39675;DHT22;27790;50.840;4.386;2023-07-31T00:48:39;19.20;99.90
39675;DHT22;27790;50.840;4.386;2023-07-31T00:51:05;19.20;99.90
39675;DHT22;27790;50.840;4.386;2023-07-31T00:53:31;19.30;99.90
39675;DHT22;27790;50.840;4.386;2023-07-31T00:55:57;19.30;99.90
39675;DHT22;27790;50.840;4.386;2023-07-31T00:58:26;19.30;99.90
39675;DHT22;27790;50.840;4.386;2023-07-31T01:00:51;19.30;99.90
39675;DHT22;27790;50.840;4.386;2023-07-31T01:03:17;19.30;99.90
39675;DHT22;27790;50.840;4.386;2023-07-31T01:05:51;19.20;99.90
39675;DHT22;27790;50.840;4.386;2023-07-31T01:10:57;19.30;99.90
39675;DHT22;27790;50.840;4.386;2023-07-31T01:13:25;19.20;99.90
39675;DHT22;27790;50.840;4.386;2023-07-31T01:15:52;19.20;99.90
39675;DHT22;27790;50.840;4.386;2023-07-31T01:18:17;19.20;99.90
39675;DHT22;27790;50.840;4.386;2023-07-31T01:20:47;19.10;99.90
39675;DHT22;27790;50.840;4.386;2023-07-31T01:26:34;19.00;99.90
39675;DHT22;27790;50.840;4.386;2023-07-31T01:29:07;19.10;99.90
39675;DHT22;27790;50.840;4.386;2023-07-31T01:31:36;19.10;99.90
39675;DHT22;27790;50.840;4.386;2023-07-31T01:34:04;19.10;99.90
39675;DHT22;27790;50.840;4.386;2023-07-31T01:36:33;19.20;99.90
39675;DHT22;27790;50.840;4.386;2023-07-31T01:39:02;19.20;99.90
39675;DHT22;27790;50.840;4.386;2023-07-31T01:41:29;19.20;99.90
39675;DHT22;27790;50.840;4.386;2023-07-31T01:43:57;19.20;99.90
39675;DHT22;27790;50.840;4.386;2023-07-31T01:46:23;19.20;99.90
39675;DHT22;27790;50.840;4.386;2023-07-31T01:48:49;19.20;99.90
39675;DHT22;27790;50.840;4.386;2023-07-31T01:51:14;19.20;99.90
39675;DHT22;27790;50.840;4.386;2023-07-31T01:53:40;19.20;99.90
39675;DHT22;27790;50.840;4.386;2023-07-31T01:56:05;19.20;99.90
39675;DHT22;27790;50.840;4.386;2023-07-31T01:58:31;19.30;99.90
39675;DHT22;27790;50.840;4.386;2023-07-31T02:00:56;19.20;99.90
39675;DHT22;27790;50.840;4.386;2023-07-31T02:03:22;19.20;99.90
39675;DHT22;27790;50.840;4.386;2023-07-31T02:05:49;19.30;99.90
39675;DHT22;27790;50.840;4.386;2023-07-31T02:08:15;19.30;99.90
39675;DHT22;27790;50.840;4.386;2023-07-31T02:10:41;19.30;99.90
39675;DHT22;27790;50.840;4.386;2023-07-31T02:13:07;19.30;99.90
39675;DHT22;27790;50.840;4.386;2023-07-31T02:15:32;19.30;99.90
39675;DHT22;27790;50.840;4.386;2023-07-31T02:17:58;19.30;99.90
39675;DHT22;27790;50.840;4.386;2023-07-31T02:20:24;19.30;99.90
39675;DHT22;27790;50.840;4.386;2023-07-31T02:22:49;19.30;99.90
39675;DHT22;27790;50.840;4.386;2023-07-31T02:25:15;19.30;99.90
39675;DHT22;27790;50.840;4.386;2023-07-31T02:27:41;19.30;99.90
39675;DHT22;27790;50.840;4.386;2023-07-31T02:30:07;19.30;99.90
39675;DHT22;27790;50.840;4.386;2023-07-31T02:32:32;19.40;99.90
39675;DHT22;27790;50.840;4.386;2023-07-31T02:34:58;19.40;99.90
39675;DHT22;27790;50.840;4.386;2023-07-31T02:37:24;19.40;99.90
39675;DHT22;27790;50.840;4.386;2023-07-31T02:39:50;19.40;99.90
39675;DHT22;27790;50.840;4.386;2023-07-31T02:42:16;19.30;99.90
39675;DHT22;27790;50.840;4.386;2023-07-31T02:44:41;19.30;99.90
39675;DHT22;27790;50.840;4.386;2023-07-31T02:47:07;19.30;99.90
39675;DHT22;27790;50.840;4.386;2023-07-31T02:49:32;19.30;99.90
39675;DHT22;27790;50.840;4.386;2023-07-31T02:51:58;19.30;99.90
39675;DHT22;27790;50.840;4.386;2023-07-31T02:54:23;19.30;99.90
39675;DHT22;27790;50.840;4.386;2023-07-31T02:56:49;19.30;99.90
39675;DHT22;27790;50.840;4.386;2023-07-31T02:59:15;19.30;99.90
39675;DHT22;27790;50.840;4.386;2023-07-31T03:01:40;19.30;99.90
39675;DHT22;27790;50.840;4.386;2023-07-31T03:04:07;19.30;99.90
39675;DHT22;27790;50.840;4.386;2023-07-31T03:06:33;19.30;99.90
39675;DHT22;27790;50.840;4.386;2023-07-31T03:08:58;19.30;99.90
39675;DHT22;27790;50.840;4.386;2023-07-31T03:11:24;19.30;99.90
39675;DHT22;27790;50.840;4.386;2023-07-31T03:13:49;19.40;99.90
39675;DHT22;27790;50.840;4.386;2023-07-31T03:16:15;19.40;99.90
39675;DHT22;27790;50.840;4.386;2023-07-31T03:18:41;19.40;99.90
39675;DHT22;27790;50.840;4.386;2023-07-31T03:21:06;19.40;99.90
39675;DHT22;27790;50.840;4.386;2023-07-31T03:23:32;19.30;99.90
39675;DHT22;27790;50.840;4.386;2023-07-31T03:25:58;19.30;99.90
39675;DHT22;27790;50.840;4.386;2023-07-31T03:28:24;19.20;99.90
39675;DHT22;27790;50.840;4.386;2023-07-31T03:30:49;19.20;99.90
39675;DHT22;27790;50.840;4.386;2023-07-31T03:33:15;19.10;99.90
39675;DHT22;27790;50.840;4.386;2023-07-31T03:35:40;19.10;99.90
39675;DHT22;27790;50.840;4.386;2023-07-31T03:38:06;19.00;99.90
39675;DHT22;27790;50.840;4.386;2023-07-31T03:40:32;19.00;99.90
39675;DHT22;27790;50.840;4.386;2023-07-31T03:42:57;18.90;99.90
39675;DHT22;27790;50.840;4.386;2023-07-31T03:45:23;18.90;99.90
39675;DHT22;27790;50.840;4.386;2023-07-31T03:47:48;18.90;99.90
39675;DHT22;27790;50.840;4.386;2023-07-31T03:50:14;18.90;99.90
39675;DHT22;27790;50.840;4.386;2023-07-31T03:52:41;18.90;99.90
39675;DHT22;27790;50.840;4.386;2023-07-31T03:55:07;18.90;99.90
39675;DHT22;27790;50.840;4.386;2023-07-31T03:57:32;18.90;99.90
39675;DHT22;27790;50.840;4.386;2023-07-31T03:59:58;18.90;99.90
39675;DHT22;27790;50.840;4.386;2023-07-31T04:02:24;18.90;99.90
39675;DHT22;27790;50.840;4.386;2023-07-31T04:04:49;18.90;99.90
39675;DHT22;27790;50.840;4.386;2023-07-31T04:07:15;19.00;99.90
39675;DHT22;27790;50.840;4.386;2023-07-31T04:09:40;18.80;99.90
39675;DHT22;27790;50.840;4.386;2023-07-31T04:12:06;18.80;99.90
39675;DHT22;27790;50.840;4.386;2023-07-31T04:14:32;18.70;99.90
39675;DHT22;27790;50.840;4.386;2023-07-31T04:16:57;18.70;99.90
39675;DHT22;27790;50.840;4.386;2023-07-31T04:19:23;18.70;99.90
39675;DHT22;27790;50.840;4.386;2023-07-31T04:21:49;18.60;99.90
39675;DHT22;27790;50.840;4.386;2023-07-31T04:24:15;18.70;99.90
39675;DHT22;27790;50.840;4.386;2023-07-31T04:26:40;18.70;99.90
39675;DHT22;27790;50.840;4.386;2023-07-31T04:29:06;18.70;99.90
39675;DHT22;27790;50.840;4.386;2023-07-31T04:31:31;18.70;99.90
39675;DHT22;27790;50.840;4.386;2023-07-31T04:33:57;18.70;99.90
39675;DHT22;27790;50.840;4.386;2023-07-31T04:36:22;18.80;99.90
39675;DHT22;27790;50.840;4.386;2023-07-31T04:38:48;18.80;99.90
39675;DHT22;27790;50.840;4.386;2023-07-31T04:41:14;18.80;99.90
39675;DHT22;27790;50.840;4.386;2023-07-31T04:43:39;18.90;99.90
39675;DHT22;27790;50.840;4.386;2023-07-31T04:46:06;18.90;99.90
39675;DHT22;27790;50.840;4.386;2023-07-31T04:48:31;18.90;99.90
39675;DHT22;27790;50.840;4.386;2023-07-31T04:50:57;18.90;99.90
39675;DHT22;27790;50.840;4.386;2023-07-31T04:53:23;18.90;99.90
39675;DHT22;27790;50.840;4.386;2023-07-31T04:55:48;18.90;99.90
39675;DHT22;27790;50.840;4.386;2023-07-31T04:58:14;18.90;99.90
39675;DHT22;27790;50.840;4.386;2023-07-31T05:00:39;18.90;99.90
39675;DHT22;27790;50.840;4.386;2023-07-31T05:03:05;18.90;99.90
39675;DHT22;27790;50.840;4.386;2023-07-31T05:05:31;18.90;99.90
39675;DHT22;27790;50.840;4.386;2023-07-31T05:07:57;18.80;99.90
39675;DHT22;27790;50.840;4.386;2023-07-31T05:10:22;18.80;99.90
39675;DHT22;27790;50.840;4.386;2023-07-31T05:12:48;18.70;99.90
39675;DHT22;27790;50.840;4.386;2023-07-31T05:15:13;18.80;99.90
39675;DHT22;27790;50.840;4.386;2023-07-31T05:17:39;18.70;99.90
39675;DHT22;27790;50.840;4.386;2023-07-31T05:20:05;18.70;99.90
39675;DHT22;27790;50.840;4.386;2023-07-31T05:22:31;18.60;99.90
39675;DHT22;27790;50.840;4.386;2023-07-31T05:24:57;18.40;99.90
39675;DHT22;27790;50.840;4.386;2023-07-31T05:27:22;18.20;99.90
39675;DHT22;27790;50.840;4.386;2023-07-31T05:29:48;18.20;99.90
39675;DHT22;27790;50.840;4.386;2023-07-31T05:32:13;18.10;99.90
39675;DHT22;27790;50.840;4.386;2023-07-31T05:34:39;18.20;99.90
39675;DHT22;27790;50.840;4.386;2023-07-31T05:37:05;18.20;99.90
39675;DHT22;27790;50.840;4.386;2023-07-31T05:39:31;18.20;99.90
39675;DHT22;27790;50.840;4.386;2023-07-31T05:41:56;18.30;99.90
39675;DHT22;27790;50.840;4.386;2023-07-31T05:44:22;18.30;99.90
39675;DHT22;27790;50.840;4.386;2023-07-31T05:46:47;18.40;99.90
39675;DHT22;27790;50.840;4.386;2023-07-31T05:49:13;18.40;99.90
39675;DHT22;27790;50.840;4.386;2023-07-31T05:51:39;18.40;99.90
39675;DHT22;27790;50.840;4.386;2023-07-31T05:54:04;18.30;99.90
39675;DHT22;27790;50.840;4.386;2023-07-31T05:56:30;18.40;99.90
39675;DHT22;27790;50.840;4.386;2023-07-31T05:58:56;18.40;99.90
39675;DHT22;27790;50.840;4.386;2023-07-31T06:01:22;18.40;99.90
39675;DHT22;27790;50.840;4.386;2023-07-31T06:03:48;18.40;99.90
39675;DHT22;27790;50.840;4.386;2023-07-31T06:06:13;18.50;99.90
39675;DHT22;27790;50.840;4.386;2023-07-31T06:08:39;18.50;99.90
39675;DHT22;27790;50.840;4.386;2023-07-31T06:11:06;18.60;99.90
39675;DHT22;27790;50.840;4.386;2023-07-31T06:13:34;18.60;99.90
39675;DHT22;27790;50.840;4.386;2023-07-31T06:15:59;18.60;99.90
39675;DHT22;27790;50.840;4.386;2023-07-31T06:18:25;18.50;99.90
39675;DHT22;27790;50.840;4.386;2023-07-31T06:20:50;18.60;99.90
39675;DHT22;27790;50.840;4.386;2023-07-31T06:23:19;18.60;99.90
39675;DHT22;27790;50.840;4.386;2023-07-31T06:25:46;18.70;99.90
39675;DHT22;27790;50.840;4.386;2023-07-31T06:28:12;18.80;99.90
39675;DHT22;27790;50.840;4.386;2023-07-31T06:30:38;18.80;99.90
39675;DHT22;27790;50.840;4.386;2023-07-31T06:33:03;18.80;99.90
39675;DHT22;27790;50.840;4.386;2023-07-31T06:35:29;18.80;99.90
39675;DHT22;27790;50.840;4.386;2023-07-31T06:37:54;18.80;99.90
39675;DHT22;27790;50.840;4.386;2023-07-31T06:40:20;18.90;99.90
39675;DHT22;27790;50.840;4.386;2023-07-31T06:42:47;18.90;99.90
39675;DHT22;27790;50.840;4.386;2023-07-31T06:45:12;18.90;99.90
39675;DHT22;27790;50.840;4.386;2023-07-31T06:47:38;19.00;99.90
39675;DHT22;27790;50.840;4.386;2023-07-31T06:50:04;19.00;99.90
39675;DHT22;27790;50.840;4.386;2023-07-31T06:52:30;19.10;99.90
39675;DHT22;27790;50.840;4.386;2023-07-31T06:55:18;19.20;99.90
39675;DHT22;27790;50.840;4.386;2023-07-31T06:57:45;19.40;99.90
39675;DHT22;27790;50.840;4.386;2023-07-31T07:00:11;19.50;99.90
39675;DHT22;27790;50.840;4.386;2023-07-31T07:02:37;19.70;99.90
39675;DHT22;27790;50.840;4.386;2023-07-31T07:05:02;19.70;99.90
39675;DHT22;27790;50.840;4.386;2023-07-31T07:07:28;19.80;99.90
39675;DHT22;27790;50.840;4.386;2023-07-31T07:09:54;19.80;99.90
39675;DHT22;27790;50.840;4.386;2023-07-31T07:12:19;19.90;99.90
39675;DHT22;27790;50.840;4.386;2023-07-31T07:14:45;20.00;99.90
39675;DHT22;27790;50.840;4.386;2023-07-31T07:17:13;20.10;99.90
39675;DHT22;27790;50.840;4.386;2023-07-31T07:19:40;20.10;99.90
39675;DHT22;27790;50.840;4.386;2023-07-31T07:22:07;20.20;99.90
39675;DHT22;27790;50.840;4.386;2023-07-31T07:24:32;20.30;99.90
39675;DHT22;27790;50.840;4.386;2023-07-31T07:26:58;20.20;99.90
39675;DHT22;27790;50.840;4.386;2023-07-31T07:29:24;20.20;99.90
39675;DHT22;27790;50.840;4.386;2023-07-31T07:31:49;20.20;99.90
39675;DHT22;27790;50.840;4.386;2023-07-31T07:34:15;20.20;99.90
39675;DHT22;27790;50.840;4.386;2023-07-31T07:36:40;20.00;99.90
39675;DHT22;27790;50.840;4.386;2023-07-31T07:39:06;20.10;99.90
39675;DHT22;27790;50.840;4.386;2023-07-31T07:41:31;20.00;99.90
39675;DHT22;27790;50.840;4.386;2023-07-31T07:43:57;20.10;99.90
39675;DHT22;27790;50.840;4.386;2023-07-31T07:46:23;20.20;99.90
39675;DHT22;27790;50.840;4.386;2023-07-31T07:48:48;20.30;99.90
39675;DHT22;27790;50.840;4.386;2023-07-31T07:51:14;20.30;99.90
39675;DHT22;27790;50.840;4.386;2023-07-31T07:53:39;20.30;99.90
39675;DHT22;27790;50.840;4.386;2023-07-31T07:56:05;20.20;99.90
39675;DHT22;27790;50.840;4.386;2023-07-31T07:58:30;20.20;99.90
39675;DHT22;27790;50.840;4.386;2023-07-31T08:00:56;20.20;99.90
39675;DHT22;27790;50.840;4.386;2023-07-31T08:03:21;20.20;99.90
39675;DHT22;27790;50.840;4.386;2023-07-31T08:05:47;20.30;99.90
39675;DHT22;27790;50.840;4.386;2023-07-31T08:08:16;20.30;99.90
39675;DHT22;27790;50.840;4.386;2023-07-31T08:10:42;20.30;99.90
39675;DHT22;27790;50.840;4.386;2023-07-31T08:13:09;20.20;99.90
39675;DHT22;27790;50.840;4.386;2023-07-31T08:15:35;20.20;99.90
39675;DHT22;27790;50.840;4.386;2023-07-31T08:18:00;20.20;99.90
39675;DHT22;27790;50.840;4.386;2023-07-31T08:20:26;20.30;99.90
39675;DHT22;27790;50.840;4.386;2023-07-31T08:22:52;20.30;99.90
39675;DHT22;27790;50.840;4.386;2023-07-31T08:25:18;20.20;99.90
39675;DHT22;27790;50.840;4.386;2023-07-31T08:27:44;20.30;99.90
39675;DHT22;27790;50.840;4.386;2023-07-31T08:30:11;20.30;99.90
39675;DHT22;27790;50.840;4.386;2023-07-31T08:32:37;20.20;99.90
39675;DHT22;27790;50.840;4.386;2023-07-31T08:35:03;20.10;99.90
39675;DHT22;27790;50.840;4.386;2023-07-31T08:37:28;20.10;99.90
39675;DHT22;27790;50.840;4.386;2023-07-31T08:39:54;20.00;99.90
39675;DHT22;27790;50.840;4.386;2023-07-31T08:42:20;20.10;99.90
39675;DHT22;27790;50.840;4.386;2023-07-31T08:44:46;20.20;99.90
39675;DHT22;27790;50.840;4.386;2023-07-31T08:47:13;20.20;99.90
39675;DHT22;27790;50.840;4.386;2023-07-31T08:49:39;20.00;99.90
39675;DHT22;27790;50.840;4.386;2023-07-31T08:52:06;20.00;99.90
39675;DHT22;27790;50.840;4.386;2023-07-31T08:54:32;20.00;99.90
39675;DHT22;27790;50.840;4.386;2023-07-31T08:56:59;19.90;99.90
39675;DHT22;27790;50.840;4.386;2023-07-31T08:59:30;19.90;99.90
39675;DHT22;27790;50.840;4.386;2023-07-31T09:01:57;20.00;99.90
39675;DHT22;27790;50.840;4.386;2023-07-31T09:04:32;19.90;99.90
39675;DHT22;27790;50.840;4.386;2023-07-31T09:07:01;19.90;99.90
39675;DHT22;27790;50.840;4.386;2023-07-31T09:09:28;20.10;99.90
39675;DHT22;27790;50.840;4.386;2023-07-31T09:11:55;20.20;99.90
39675;DHT22;27790;50.840;4.386;2023-07-31T09:14:21;20.30;99.90
39675;DHT22;27790;50.840;4.386;2023-07-31T09:16:55;20.40;99.90
39675;DHT22;27790;50.840;4.386;2023-07-31T09:19:26;20.40;99.90
39675;DHT22;27790;50.840;4.386;2023-07-31T09:21:51;20.50;99.90
39675;DHT22;27790;50.840;4.386;2023-07-31T09:24:31;20.50;99.90
39675;DHT22;27790;50.840;4.386;2023-07-31T09:26:58;20.70;99.90
39675;DHT22;27790;50.840;4.386;2023-07-31T09:29:24;20.80;99.90
39675;DHT22;27790;50.840;4.386;2023-07-31T09:31:52;20.70;99.90
39675;DHT22;27790;50.840;4.386;2023-07-31T09:34:18;20.70;99.90
39675;DHT22;27790;50.840;4.386;2023-07-31T09:36:46;20.70;99.90
39675;DHT22;27790;50.840;4.386;2023-07-31T09:39:13;20.60;99.90
39675;DHT22;27790;50.840;4.386;2023-07-31T09:41:41;20.60;99.90
39675;DHT22;27790;50.840;4.386;2023-07-31T09:44:07;20.60;99.90
39675;DHT22;27790;50.840;4.386;2023-07-31T09:46:35;20.70;99.90
39675;DHT22;27790;50.840;4.386;2023-07-31T09:49:12;20.60;99.90
39675;DHT22;27790;50.840;4.386;2023-07-31T09:51:42;20.50;99.90
39675;DHT22;27790;50.840;4.386;2023-07-31T09:54:11;20.20;99.90
39675;DHT22;27790;50.840;4.386;2023-07-31T09:59:08;20.10;99.90
39675;DHT22;27790;50.840;4.386;2023-07-31T10:01:36;20.30;99.90
39675;DHT22;27790;50.840;4.386;2023-07-31T10:04:02;20.20;99.90
39675;DHT22;27790;50.840;4.386;2023-07-31T10:06:29;20.20;99.90
39675;DHT22;27790;50.840;4.386;2023-07-31T10:08:54;20.10;99.90
39675;DHT22;27790;50.840;4.386;2023-07-31T10:11:21;20.00;99.90
39675;DHT22;27790;50.840;4.386;2023-07-31T10:13:47;20.00;99.90
39675;DHT22;27790;50.840;4.386;2023-07-31T10:16:14;20.10;99.90
39675;DHT22;27790;50.840;4.386;2023-07-31T10:18:42;20.20;99.90
39675;DHT22;27790;50.840;4.386;2023-07-31T10:21:09;20.60;99.90
39675;DHT22;27790;50.840;4.386;2023-07-31T10:23:35;20.60;99.90
39675;DHT22;27790;50.840;4.386;2023-07-31T10:26:01;20.70;99.90
39675;DHT22;27790;50.840;4.386;2023-07-31T10:28:28;20.90;99.90
39675;DHT22;27790;50.840;4.386;2023-07-31T10:30:54;21.10;99.90
39675;DHT22;27790;50.840;4.386;2023-07-31T10:33:20;21.30;99.90
39675;DHT22;27790;50.840;4.386;2023-07-31T10:35:49;21.30;99.90
39675;DHT22;27790;50.840;4.386;2023-07-31T10:38:18;21.20;99.90
39675;DHT22;27790;50.840;4.386;2023-07-31T10:40:44;21.10;99.90
39675;DHT22;27790;50.840;4.386;2023-07-31T10:43:23;21.10;99.90
39675;DHT22;27790;50.840;4.386;2023-07-31T10:45:50;21.00;99.90
39675;DHT22;27790;50.840;4.386;2023-07-31T10:48:16;21.00;99.90
39675;DHT22;27790;50.840;4.386;2023-07-31T10:50:50;21.20;99.90
39675;DHT22;27790;50.840;4.386;2023-07-31T10:55:51;21.00;99.90
39675;DHT22;27790;50.840;4.386;2023-07-31T10:58:19;21.10;99.90
39675;DHT22;27790;50.840;4.386;2023-07-31T11:00:45;21.30;99.90
39675;DHT22;27790;50.840;4.386;2023-07-31T11:03:15;21.40;99.90
39675;DHT22;27790;50.840;4.386;2023-07-31T11:08:25;21.50;99.90
39675;DHT22;27790;50.840;4.386;2023-07-31T11:11:06;21.70;99.90
39675;DHT22;27790;50.840;4.386;2023-07-31T11:13:33;21.60;99.90
39675;DHT22;27790;50.840;4.386;2023-07-31T11:16:00;21.70;99.90
39675;DHT22;27790;50.840;4.386;2023-07-31T11:18:26;21.80;99.90
39675;DHT22;27790;50.840;4.386;2023-07-31T11:20:53;21.80;99.90
39675;DHT22;27790;50.840;4.386;2023-07-31T11:23:19;22.00;99.90
39675;DHT22;27790;50.840;4.386;2023-07-31T11:25:46;21.90;99.90
39675;DHT22;27790;50.840;4.386;2023-07-31T11:28:14;21.90;99.90
39675;DHT22;27790;50.840;4.386;2023-07-31T11:30:41;21.80;99.90
39675;DHT22;27790;50.840;4.386;2023-07-31T11:33:08;21.70;99.90
39675;DHT22;27790;50.840;4.386;2023-07-31T11:38:07;21.70;99.90
39675;DHT22;27790;50.840;4.386;2023-07-31T11:40:41;21.60;99.90
39675;DHT22;27790;50.840;4.386;2023-07-31T11:43:07;21.70;99.90
39675;DHT22;27790;50.840;4.386;2023-07-31T11:45:33;21.60;99.90
39675;DHT22;27790;50.840;4.386;2023-07-31T11:48:00;21.60;99.90
39675;DHT22;27790;50.840;4.386;2023-07-31T11:50:26;21.60;99.90
39675;DHT22;27790;50.840;4.386;2023-07-31T11:53:01;21.70;99.90
39675;DHT22;27790;50.840;4.386;2023-07-31T11:55:28;21.70;99.90
39675;DHT22;27790;50.840;4.386;2023-07-31T11:57:57;21.80;99.90
39675;DHT22;27790;50.840;4.386;2023-07-31T12:00:25;21.80;99.90
39675;DHT22;27790;50.840;4.386;2023-07-31T12:02:51;21.80;99.90
39675;DHT22;27790;50.840;4.386;2023-07-31T12:05:18;21.90;99.90
39675;DHT22;27790;50.840;4.386;2023-07-31T12:07:51;22.00;99.90
39675;DHT22;27790;50.840;4.386;2023-07-31T12:10:29;22.00;99.90
39675;DHT22;27790;50.840;4.386;2023-07-31T12:13:04;22.20;99.90
39675;DHT22;27790;50.840;4.386;2023-07-31T12:15:38;22.40;99.90
39675;DHT22;27790;50.840;4.386;2023-07-31T12:18:11;22.40;99.90
39675;DHT22;27790;50.840;4.386;2023-07-31T12:20:44;22.40;99.90
39675;DHT22;27790;50.840;4.386;2023-07-31T12:23:20;22.30;99.90
39675;DHT22;27790;50.840;4.386;2023-07-31T12:26:15;22.20;99.90
39675;DHT22;27790;50.840;4.386;2023-07-31T12:28:44;22.10;99.90
39675;DHT22;27790;50.840;4.386;2023-07-31T12:31:12;22.10;99.90
39675;DHT22;27790;50.840;4.386;2023-07-31T12:33:39;22.10;99.90
39675;DHT22;27790;50.840;4.386;2023-07-31T12:38:35;22.00;99.90
39675;DHT22;27790;50.840;4.386;2023-07-31T12:41:01;22.10;99.90
39675;DHT22;27790;50.840;4.386;2023-07-31T12:43:27;22.20;99.90
39675;DHT22;27790;50.840;4.386;2023-07-31T12:45:54;22.20;99.90
39675;DHT22;27790;50.840;4.386;2023-07-31T12:48:20;22.40;99.90
39675;DHT22;27790;50.840;4.386;2023-07-31T12:50:46;22.70;99.90
39675;DHT22;27790;50.840;4.386;2023-07-31T12:53:11;22.90;99.90
39675;DHT22;27790;50.840;4.386;2023-07-31T12:55:37;23.00;99.90
39675;DHT22;27790;50.840;4.386;2023-07-31T12:58:03;22.90;99.90
39675;DHT22;27790;50.840;4.386;2023-07-31T13:00:29;22.70;99.90
39675;DHT22;27790;50.840;4.386;2023-07-31T13:02:54;22.60;99.90
39675;DHT22;27790;50.840;4.386;2023-07-31T13:05:20;22.50;99.90
39675;DHT22;27790;50.840;4.386;2023-07-31T13:07:47;22.40;99.90
39675;DHT22;27790;50.840;4.386;2023-07-31T13:10:13;22.30;99.90
39675;DHT22;27790;50.840;4.386;2023-07-31T13:12:38;22.30;99.90
39675;DHT22;27790;50.840;4.386;2023-07-31T13:15:05;22.20;99.90
39675;DHT22;27790;50.840;4.386;2023-07-31T13:17:32;22.10;99.90
39675;DHT22;27790;50.840;4.386;2023-07-31T13:19:58;22.00;99.90
39675;DHT22;27790;50.840;4.386;2023-07-31T13:22:23;21.80;99.90
39675;DHT22;27790;50.840;4.386;2023-07-31T13:24:49;21.60;99.90
39675;DHT22;27790;50.840;4.386;2023-07-31T13:27:15;21.50;99.90
39675;DHT22;27790;50.840;4.386;2023-07-31T13:29:44;21.50;99.90
39675;DHT22;27790;50.840;4.386;2023-07-31T13:32:10;21.40;99.90
39675;DHT22;27790;50.840;4.386;2023-07-31T13:34:35;21.30;99.90
39675;DHT22;27790;50.840;4.386;2023-07-31T13:37:01;21.20;99.90
39675;DHT22;27790;50.840;4.386;2023-07-31T13:39:27;21.00;99.90
39675;DHT22;27790;50.840;4.386;2023-07-31T13:41:52;20.90;99.90
39675;DHT22;27790;50.840;4.386;2023-07-31T13:44:18;20.90;99.90
39675;DHT22;27790;50.840;4.386;2023-07-31T13:46:43;20.90;99.90
39675;DHT22;27790;50.840;4.386;2023-07-31T13:49:09;20.90;99.90
39675;DHT22;27790;50.840;4.386;2023-07-31T13:51:35;20.80;99.90
39675;DHT22;27790;50.840;4.386;2023-07-31T13:54:01;20.80;99.90
39675;DHT22;27790;50.840;4.386;2023-07-31T13:56:26;20.80;99.90
39675;DHT22;27790;50.840;4.386;2023-07-31T13:58:52;20.70;99.90
39675;DHT22;27790;50.840;4.386;2023-07-31T14:01:18;20.70;99.90
39675;DHT22;27790;50.840;4.386;2023-07-31T14:03:43;20.70;99.90
39675;DHT22;27790;50.840;4.386;2023-07-31T14:06:09;20.60;99.90
39675;DHT22;27790;50.840;4.386;2023-07-31T14:08:35;20.40;99.90
39675;DHT22;27790;50.840;4.386;2023-07-31T14:11:00;20.30;99.90
39675;DHT22;27790;50.840;4.386;2023-07-31T14:13:26;20.30;99.90
39675;DHT22;27790;50.840;4.386;2023-07-31T14:15:51;20.30;99.90
39675;DHT22;27790;50.840;4.386;2023-07-31T14:18:18;20.30;99.90
39675;DHT22;27790;50.840;4.386;2023-07-31T14:20:44;20.40;99.90
39675;DHT22;27790;50.840;4.386;2023-07-31T14:23:09;20.40;99.90
39675;DHT22;27790;50.840;4.386;2023-07-31T14:25:35;20.40;99.90
39675;DHT22;27790;50.840;4.386;2023-07-31T14:28:00;20.40;99.90
39675;DHT22;27790;50.840;4.386;2023-07-31T14:30:26;20.50;99.90
39675;DHT22;27790;50.840;4.386;2023-07-31T14:32:51;20.50;99.90
39675;DHT22;27790;50.840;4.386;2023-07-31T14:35:17;20.50;99.90
39675;DHT22;27790;50.840;4.386;2023-07-31T14:37:44;20.50;99.90
39675;DHT22;27790;50.840;4.386;2023-07-31T14:40:11;20.40;99.90
39675;DHT22;27790;50.840;4.386;2023-07-31T14:42:38;20.30;99.90
39675;DHT22;27790;50.840;4.386;2023-07-31T14:45:04;20.20;99.90
39675;DHT22;27790;50.840;4.386;2023-07-31T14:47:30;20.10;99.90
39675;DHT22;27790;50.840;4.386;2023-07-31T14:49:57;20.20;99.90
39675;DHT22;27790;50.840;4.386;2023-07-31T14:52:23;20.30;99.90
39675;DHT22;27790;50.840;4.386;2023-07-31T14:54:48;20.30;99.90
39675;DHT22;27790;50.840;4.386;2023-07-31T14:57:14;20.40;99.90
39675;DHT22;27790;50.840;4.386;2023-07-31T14:59:39;20.50;99.90
39675;DHT22;27790;50.840;4.386;2023-07-31T15:02:06;20.40;99.90
39675;DHT22;27790;50.840;4.386;2023-07-31T15:04:33;20.30;99.90
39675;DHT22;27790;50.840;4.386;2023-07-31T15:06:59;20.20;99.90
39675;DHT22;27790;50.840;4.386;2023-07-31T15:09:24;20.20;99.90
39675;DHT22;27790;50.840;4.386;2023-07-31T15:11:50;20.20;99.90
39675;DHT22;27790;50.840;4.386;2023-07-31T15:14:15;20.20;99.90
39675;DHT22;27790;50.840;4.386;2023-07-31T15:16:41;20.20;99.90
39675;DHT22;27790;50.840;4.386;2023-07-31T15:19:07;20.20;99.90
39675;DHT22;27790;50.840;4.386;2023-07-31T15:21:33;20.20;99.90
39675;DHT22;27790;50.840;4.386;2023-07-31T15:23:58;20.20;99.90
39675;DHT22;27790;50.840;4.386;2023-07-31T15:26:24;20.20;99.90
39675;DHT22;27790;50.840;4.386;2023-07-31T15:28:57;20.20;99.90
39675;DHT22;27790;50.840;4.386;2023-07-31T15:31:25;20.20;99.90
39675;DHT22;27790;50.840;4.386;2023-07-31T15:33:51;20.20;99.90
39675;DHT22;27790;50.840;4.386;2023-07-31T15:36:16;20.20;99.90
39675;DHT22;27790;50.840;4.386;2023-07-31T15:38:42;20.30;99.90
39675;DHT22;27790;50.840;4.386;2023-07-31T15:41:08;20.20;99.90
39675;DHT22;27790;50.840;4.386;2023-07-31T15:43:33;20.20;99.90